Tuckerman, AR (72473)

05:14 PM CDT am 01. September 2015 (GMT -0500)
Newport | | Change Station
CLOSE
Current Station
Flughafen
Location: Newport,
Höhe: 240 ft
Wetterstationen in der Umgebung
aktive Warnung: Flood Warning

Höhe 240 ft 35.64 °N, 91.17 °W | Updated 18 minutes ago

Teils Wolkig
Teils Wolkig
87 °F
gefühlte 94 °F
N
5
Wind Wechselnd Wind aus Wechselnd

Heute
Max. -- | schwach -- °F
--% Regenrisiko
Gestern
Max. -- | schwach -- °F
Precip. -- inch
6:36 AM 7:32 PM
Drittes Viertel, 86% visible
Druck 30.05 inch
Sichtweite 10.0 Meilen
Wolken Heiter
Hitzeindex 94 °F
Taupunkt 73 °F
Feuchtigkeit 63%
Regen 0.00 inch
Schneehöhe Nicht verfügbar..
UV 3 von 12
Pollen 9.90 von 12
Luftqualität Nicht verfügbar..
Flu Activity Nicht verfügbar..
METAR KM19 012156Z AUTO VRB04KT 10SM CLR 31/23 A3006 RMK AO2 T03050227 SLP175
Druck 30.05 inch
Sichtweite 10.0 Meilen
Wolken Heiter
Hitzeindex 94 °F
Taupunkt 73 °F
Feuchtigkeit 63%
Regen 0.00 inch
Schneehöhe Nicht verfügbar..
UV 3 von 12
Pollen 9.90 von 12
Luftqualität Nicht verfügbar..
Flu Activity Nicht verfügbar..
METAR KM19 012156Z AUTO VRB04KT 10SM CLR 31/23 A3006 RMK AO2 T03050227 SLP175

10-Day Weather Forecast

×

Almanac

Astronomie

Sep. 01, 2015 Aufgang Untergang
Genaue Zeit
Bürgerliche Dämmerung
Nautische Dämmerung
Astronomische Dämmerung
Mond
Länge des sichtbaren Lichts
Tageslänge
Tomorrow will be .
, % of the Moon is Illuminated

Heutige Rekorde

State Highs State Lows

Community

WunderPhotos

Upload Photos

1,851,632 Fotos hochgeladen!

WunderBlogs® & News

Nearby

Luftqualität

  Luftqualität LQ Index Schadstoff
Not available.

Schneehöhe

Station Depth Höhe

Erdbebenaktivität

Stadt Distance Mag. Time & Date
Minimum magnitude displayed is 2.5.

küstennahe Wassertemperaturen

Ort Temperatur

Stations

Wetterstationen in der Umgebung

Stationsstandort Temp. Windchill Taupunkt Feuchtigkeit Wind Precip. Höhe Aktualisiert Art
                   
Flood Warning
Statement as of 10:40 AM CDT am 01. September 2015

The Flood Warning continues for
the Cache River near Patterson.
* Until further notice... or until the warning is cancelled.
* At 10:00 am Tuesday the stage was 8.0 feet.
* Minor flooding is forecast.
* Flood stage is 8.0 feet.
* Forecast... the river will remain near 8.0 feet for a few days.
* Impact... at 8.0 feet... low swampy Timberland along the river begins
to flood. Flood gates should be closed and equipment moved out of
the low grounds along the river and tributaries.




             Fld observed forecast 7 am
location stg stg day time Wed Thu Fri Sat sun

Cache River
Patterson 8 8.0 Tue 10 am 8.0 8.0 8.0 8.0 8.0




Lat... Lon 3510 9133 3522 9128 3539 9123 3538 9113
3521 9117 3508 9122